Time;durP1;ratioP1;P1;durP2;ratioP2;P2;SDS_P1;SDS_P2;PMS_P1;PMS_P2;Temp;Humidity;BMP_temperature;BMP_pressure;BME280_temperature;BME280_humidity;BME280_pressure;Samples;Min_cycle;Max_cycle;Signal;HPM_P1;HPM_P2
2020/12/20 00:00:49;;;;;;;6.63;4.00;;;11.40;99.90;;;;;;5050244;28;20173;-65
2020/12/20 00:03:15;;;;;;;5.63;3.93;;;11.40;99.90;;;;;;5051246;28;20185;-66
2020/12/20 00:05:41;;;;;;;5.50;3.83;;;11.40;99.90;;;;;;5050984;28;20405;-66
2020/12/20 00:08:07;;;;;;;6.30;4.80;;;11.50;99.90;;;;;;5049635;28;20991;-66
2020/12/20 00:10:32;;;;;;;7.43;3.87;;;11.50;99.90;;;;;;5049033;28;20174;-66
2020/12/20 00:12:58;;;;;;;4.10;3.10;;;11.50;99.90;;;;;;5048585;28;20555;-65
2020/12/20 00:15:25;;;;;;;7.07;3.30;;;11.50;99.90;;;;;;5049585;28;20173;-65
2020/12/20 00:17:51;;;;;;;3.90;3.20;;;11.50;99.90;;;;;;5049429;28;20193;-66
2020/12/20 00:20:17;;;;;;;4.93;3.63;;;11.50;99.90;;;;;;5052843;28;20404;-66
2020/12/20 00:22:43;;;;;;;6.03;4.20;;;11.50;99.90;;;;;;5057965;28;20433;-65
2020/12/20 00:25:09;;;;;;;4.03;3.00;;;11.50;99.90;;;;;;5057482;28;20408;-66
2020/12/20 00:27:34;;;;;;;4.57;3.40;;;11.30;99.90;;;;;;5057003;28;20451;-66
2020/12/20 00:30:04;;;;;;;5.00;4.00;;;11.30;99.90;;;;;;5056715;28;20168;-65
2020/12/20 00:32:29;;;;;;;5.50;3.83;;;11.50;99.90;;;;;;5056961;28;20193;-65
2020/12/20 00:34:55;;;;;;;7.20;3.70;;;11.50;99.90;;;;;;5056167;28;20408;-65
2020/12/20 00:37:21;;;;;;;6.07;3.77;;;11.50;99.90;;;;;;5056493;28;20176;-65
2020/12/20 00:39:46;;;;;;;4.67;3.70;;;11.60;99.90;;;;;;5056452;28;20174;-65
2020/12/20 00:42:12;;;;;;;5.40;4.07;;;11.50;99.90;;;;;;5056176;28;20459;-65
2020/12/20 00:44:38;;;;;;;4.47;3.13;;;11.50;99.90;;;;;;5056365;28;20184;-65
2020/12/20 00:47:04;;;;;;;8.47;4.50;;;11.60;99.90;;;;;;5055158;28;20443;-65
2020/12/20 00:49:31;;;;;;;4.97;3.70;;;11.60;99.90;;;;;;5055552;28;20153;-65
2020/12/20 00:52:00;;;;;;;8.10;4.00;;;11.50;99.90;;;;;;5055878;28;20466;-65
2020/12/20 00:54:26;;;;;;;4.30;3.60;;;11.40;99.90;;;;;;5056361;28;20388;-65
2020/12/20 00:56:52;;;;;;;7.33;4.10;;;11.40;99.90;;;;;;5055410;28;20452;-65
2020/12/20 00:59:18;;;;;;;4.33;3.80;;;11.40;99.90;;;;;;5054301;28;20404;-64
2020/12/20 01:01:43;;;;;;;4.47;3.70;;;11.50;99.90;;;;;;5055422;28;20208;-65
2020/12/20 01:04:09;;;;;;;6.17;4.03;;;11.50;99.90;;;;;;5054444;28;20173;-65
2020/12/20 01:06:35;;;;;;;5.03;4.00;;;11.50;99.90;;;;;;5054829;28;20204;-65
2020/12/20 01:09:00;;;;;;;6.77;4.43;;;11.40;99.90;;;;;;5054251;28;20173;-65
2020/12/20 01:11:27;;;;;;;5.07;3.97;;;11.50;99.90;;;;;;5054726;28;20169;-65
2020/12/20 01:13:53;;;;;;;5.23;3.33;;;11.40;99.90;;;;;;5054981;28;20157;-65
2020/12/20 01:16:20;;;;;;;6.00;4.50;;;11.30;99.90;;;;;;5055256;28;20488;-65
2020/12/20 01:18:46;;;;;;;7.63;4.40;;;11.40;99.90;;;;;;5055349;28;20186;-65
2020/12/20 01:21:16;;;;;;;7.53;5.50;;;11.40;99.90;;;;;;5055055;28;20412;-65
2020/12/20 01:23:41;;;;;;;8.13;4.67;;;11.40;99.90;;;;;;5055232;28;20199;-65
2020/12/20 01:26:07;;;;;;;6.80;4.10;;;11.30;99.90;;;;;;5054752;28;20412;-64
2020/12/20 01:28:33;;;;;;;4.83;3.80;;;11.40;99.90;;;;;;5054167;28;20181;-65
2020/12/20 01:31:00;;;;;;;5.97;4.30;;;11.40;99.90;;;;;;5054235;28;20440;-64
2020/12/20 01:33:26;;;;;;;8.53;3.97;;;11.40;99.90;;;;;;5054185;28;20486;-65
2020/12/20 01:35:52;;;;;;;4.30;3.70;;;11.30;99.90;;;;;;5053830;28;20382;-64
2020/12/20 01:38:18;;;;;;;5.80;3.50;;;11.30;99.90;;;;;;5052893;28;20634;-64
2020/12/20 01:40:51;;;;;;;4.23;3.67;;;11.30;99.90;;;;;;5055279;28;20418;-65
2020/12/20 01:43:17;;;;;;;5.50;4.43;;;11.30;99.90;;;;;;5056052;28;20204;-65
2020/12/20 01:45:43;;;;;;;7.00;5.07;;;11.30;99.90;;;;;;5054829;28;20430;-65
2020/12/20 01:48:09;;;;;;;4.73;4.10;;;11.30;99.90;;;;;;5055241;28;20422;-65
2020/12/20 01:50:35;;;;;;;4.27;3.87;;;11.30;99.90;;;;;;5055435;28;20177;-65
2020/12/20 01:53:02;;;;;;;6.27;4.27;;;11.30;99.90;;;;;;5056222;28;20504;-64
2020/12/20 01:55:29;;;;;;;5.30;4.60;;;11.30;99.90;;;;;;5055334;28;20170;-65
2020/12/20 01:57:55;;;;;;;4.50;3.60;;;11.30;99.90;;;;;;5055721;28;20470;-64
2020/12/20 02:00:21;;;;;;;3.90;3.50;;;11.30;99.90;;;;;;5055587;28;20383;-64
2020/12/20 02:02:46;;;;;;;6.03;4.80;;;11.30;99.90;;;;;;5055012;28;20424;-65
2020/12/20 02:05:12;;;;;;;5.40;4.03;;;11.30;99.90;;;;;;5055257;28;20184;-65
2020/12/20 02:07:38;;;;;;;6.80;4.23;;;11.20;99.90;;;;;;5037855;28;20205;-64
2020/12/20 02:10:03;;;;;;;5.37;3.90;;;11.30;99.90;;;;;;5054966;28;20199;-65
2020/12/20 02:12:29;;;;;;;4.83;3.93;;;11.20;99.90;;;;;;5054484;28;20439;-65
2020/12/20 02:14:55;;;;;;;7.70;4.10;;;11.30;99.90;;;;;;5037972;28;20166;-65
2020/12/20 02:17:20;;;;;;;5.90;3.60;;;11.30;99.90;;;;;;5055519;28;20178;-65
2020/12/20 02:19:46;;;;;;;7.87;4.10;;;11.30;99.90;;;;;;5054710;28;20178;-65
2020/12/20 02:22:12;;;;;;;4.23;3.83;;;11.20;99.90;;;;;;5054843;28;20193;-65
2020/12/20 02:24:38;;;;;;;8.93;4.57;;;11.20;99.90;;;;;;5054608;28;20475;-64
2020/12/20 02:27:03;;;;;;;8.70;4.73;;;11.30;99.90;;;;;;5054337;28;20447;-64
2020/12/20 02:29:29;;;;;;;9.60;4.50;;;11.30;99.90;;;;;;5053917;28;20166;-64
2020/12/20 02:31:55;;;;;;;5.37;3.77;;;11.20;99.90;;;;;;5055951;28;20240;-65
2020/12/20 02:34:20;;;;;;;6.43;4.53;;;11.30;99.90;;;;;;5057944;28;20380;-65
2020/12/20 02:36:46;;;;;;;7.70;3.73;;;11.30;99.90;;;;;;5057979;28;20170;-65
2020/12/20 02:39:11;;;;;;;6.03;4.00;;;11.30;99.90;;;;;;5041403;28;20181;-65
2020/12/20 02:41:37;;;;;;;5.50;4.07;;;11.30;99.90;;;;;;5057807;28;20426;-64
2020/12/20 02:44:04;;;;;;;5.80;4.30;;;11.20;99.90;;;;;;5058740;28;20153;-65
2020/12/20 02:46:30;;;;;;;6.13;3.80;;;11.20;99.90;;;;;;5057434;28;20220;-64
2020/12/20 02:48:56;;;;;;;7.47;4.20;;;11.10;99.90;;;;;;5057613;28;20408;-64
2020/12/20 02:51:22;;;;;;;6.17;4.10;;;11.20;99.90;;;;;;5055849;28;20412;-64
2020/12/20 02:53:48;;;;;;;5.43;4.37;;;11.20;99.90;;;;;;5055395;28;20484;-64
2020/12/20 02:56:14;;;;;;;7.87;3.97;;;11.20;99.90;;;;;;5058186;28;20408;-65
2020/12/20 02:58:40;;;;;;;5.70;4.47;;;11.20;99.90;;;;;;5040554;28;20201;-65
2020/12/20 03:01:06;;;;;;;6.33;3.67;;;11.10;99.90;;;;;;5040613;28;20204;-65
2020/12/20 03:03:32;;;;;;;8.97;5.20;;;11.10;99.90;;;;;;5057292;28;20439;-65
2020/12/20 03:05:57;;;;;;;5.70;4.10;;;11.10;99.90;;;;;;5057704;28;20412;-65
2020/12/20 03:08:23;;;;;;;4.80;4.30;;;11.20;99.90;;;;;;5057312;28;20492;-65
2020/12/20 03:10:49;;;;;;;5.40;3.70;;;11.10;99.90;;;;;;5057871;28;20196;-65
2020/12/20 03:13:15;;;;;;;5.23;3.70;;;11.30;99.90;;;;;;5057839;28;20189;-64
2020/12/20 03:15:43;;;;;;;4.20;3.53;;;11.20;99.90;;;;;;5057380;28;20434;-64
2020/12/20 03:18:09;;;;;;;7.07;4.13;;;11.20;99.90;;;;;;5057635;28;20169;-65
2020/12/20 03:20:35;;;;;;;4.70;4.17;;;11.20;99.90;;;;;;5057522;28;20423;-64
2020/12/20 03:23:01;;;;;;;4.77;4.20;;;11.10;99.90;;;;;;5057611;28;20948;-65
2020/12/20 03:25:27;;;;;;;5.53;4.70;;;11.00;99.90;;;;;;5057143;28;20415;-65
2020/12/20 03:27:53;;;;;;;5.07;4.33;;;11.10;99.90;;;;;;5057016;28;20193;-64
2020/12/20 03:30:19;;;;;;;6.30;4.37;;;11.20;99.90;;;;;;5057441;28;20168;-65
2020/12/20 03:32:44;;;;;;;6.23;4.30;;;11.20;99.90;;;;;;5057469;28;20467;-64
2020/12/20 03:35:11;;;;;;;6.10;4.60;;;11.10;99.90;;;;;;5057306;28;20431;-65
2020/12/20 03:37:37;;;;;;;6.43;5.03;;;11.10;99.90;;;;;;5056776;28;20292;-65
2020/12/20 03:40:04;;;;;;;7.57;4.20;;;11.00;99.90;;;;;;5056809;28;20408;-65
2020/12/20 03:42:29;;;;;;;6.60;4.53;;;11.00;99.90;;;;;;5056121;28;20197;-65
2020/12/20 03:44:55;;;;;;;7.30;4.70;;;10.80;99.90;;;;;;5057176;28;20403;-65
2020/12/20 03:47:21;;;;;;;5.60;4.50;;;10.90;1.00;;;;;;5039318;28;20205;-64
2020/12/20 03:49:47;;;;;;;6.60;5.03;;;10.80;1.00;;;;;;5056672;28;20253;-65
2020/12/20 03:52:12;;;;;;;6.87;4.70;;;10.90;1.00;;;;;;5056420;28;20424;-65
2020/12/20 03:54:38;;;;;;;6.03;3.87;;;10.90;99.90;;;;;;5056593;28;20181;-65
2020/12/20 03:57:03;;;;;;;9.97;4.60;;;11.00;99.90;;;;;;5056741;28;20178;-65
2020/12/20 03:59:29;;;;;;;7.73;4.53;;;11.00;99.90;;;;;;5056474;28;20177;-65
2020/12/20 04:01:55;;;;;;;5.80;4.17;;;11.00;99.90;;;;;;5056347;28;20189;-65
2020/12/20 04:04:20;;;;;;;6.60;4.80;;;10.90;99.90;;;;;;5055820;28;20166;-65
2020/12/20 04:06:46;;;;;;;5.97;4.80;;;10.90;99.90;;;;;;5055893;28;20193;-64
2020/12/20 04:09:12;;;;;;;6.60;4.40;;;11.00;99.90;;;;;;5056435;28;20166;-64
2020/12/20 04:11:37;;;;;;;6.30;5.00;;;11.00;99.90;;;;;;5055578;28;20169;-65
2020/12/20 04:14:03;;;;;;;4.90;4.40;;;10.80;99.90;;;;;;5055968;28;20412;-65
2020/12/20 04:16:29;;;;;;;8.87;5.03;;;10.90;1.00;;;;;;5055703;28;20404;-64
2020/12/20 04:18:55;;;;;;;6.60;4.40;;;10.90;99.90;;;;;;5055217;28;20433;-64
2020/12/20 04:21:20;;;;;;;9.50;4.70;;;10.80;1.00;;;;;;5054591;28;20177;-64
2020/12/20 04:23:46;;;;;;;6.67;4.80;;;10.80;99.90;;;;;;5055258;28;20197;-64
2020/12/20 04:26:12;;;;;;;7.23;4.70;;;10.80;1.00;;;;;;5055144;28;20197;-65
2020/12/20 04:28:37;;;;;;;5.23;4.13;;;10.80;1.00;;;;;;5055393;28;20197;-65
2020/12/20 04:31:03;;;;;;;6.87;5.00;;;10.80;1.00;;;;;;5054961;28;20405;-64
2020/12/20 04:33:29;;;;;;;6.07;5.47;;;10.80;1.00;;;;;;5055051;28;20205;-64
2020/12/20 04:35:54;;;;;;;5.50;4.60;;;10.80;1.00;;;;;;5054921;28;20169;-64
2020/12/20 04:38:20;;;;;;;6.07;4.40;;;10.80;1.00;;;;;;5055299;28;20176;-64
2020/12/20 04:40:45;;;;;;;7.40;5.40;;;10.90;1.00;;;;;;5055364;28;20217;-64
2020/12/20 04:43:12;;;;;;;7.17;4.50;;;10.80;1.00;;;;;;5054867;28;20224;-64
2020/12/20 04:45:39;;;;;;;5.90;4.63;;;10.80;1.00;;;;;;5055084;28;20166;-64
2020/12/20 04:48:05;;;;;;;5.73;4.00;;;10.90;1.00;;;;;;5054752;28;20467;-64
2020/12/20 04:50:32;;;;;;;5.50;4.70;;;10.80;1.00;;;;;;5053194;28;20408;-64
2020/12/20 04:52:59;;;;;;;7.50;4.03;;;10.90;1.00;;;;;;5054068;28;20432;-64
2020/12/20 04:55:28;;;;;;;8.33;4.90;;;10.90;1.00;;;;;;5053244;28;20416;-64
2020/12/20 04:57:54;;;;;;;5.53;4.70;;;10.90;1.00;;;;;;5053774;28;20479;-65
2020/12/20 05:00:21;;;;;;;6.47;5.17;;;10.90;99.90;;;;;;5053582;28;20506;-65
2020/12/20 05:02:46;;;;;;;8.40;4.67;;;10.90;99.90;;;;;;5053137;28;20464;-64
2020/12/20 05:05:12;;;;;;;5.30;4.20;;;10.80;1.00;;;;;;5053875;28;20416;-64
2020/12/20 05:07:38;;;;;;;5.73;4.90;;;10.70;1.00;;;;;;5054559;28;20204;-64
2020/12/20 05:10:05;;;;;;;6.50;5.13;;;10.80;1.00;;;;;;5053779;28;20431;-64
2020/12/20 05:12:33;;;;;;;6.10;4.47;;;10.80;1.00;;;;;;5053349;28;20437;-65
2020/12/20 05:15:15;;;;;;;6.80;5.27;;;10.80;1.00;;;;;;5054284;28;20408;-65
2020/12/20 05:17:41;;;;;;;9.30;6.23;;;10.80;1.00;;;;;;5054283;28;20389;-65
2020/12/20 05:20:07;;;;;;;6.67;5.00;;;10.80;1.00;;;;;;5054524;28;20438;-64
2020/12/20 05:22:33;;;;;;;5.33;4.80;;;10.80;1.00;;;;;;5054212;28;20252;-64
2020/12/20 05:25:15;;;;;;;6.47;5.10;;;10.80;1.00;;;;;;5054359;28;20920;-65
2020/12/20 05:27:41;;;;;;;5.10;4.60;;;11.00;1.00;;;;;;5054199;28;20498;-65
2020/12/20 05:30:14;;;;;;;6.07;5.17;;;10.90;1.00;;;;;;5035748;28;20431;-64
2020/12/20 05:32:43;;;;;;;6.83;4.20;;;10.80;1.00;;;;;;5054446;28;20197;-64
2020/12/20 05:35:11;;;;;;;7.47;5.30;;;10.80;1.00;;;;;;5054146;28;20369;-65
2020/12/20 05:37:38;;;;;;;6.07;4.90;;;10.90;1.00;;;;;;5053949;28;20411;-64
2020/12/20 05:40:08;;;;;;;7.00;5.13;;;10.90;1.00;;;;;;5054667;28;20404;-65
2020/12/20 05:42:34;;;;;;;6.90;5.53;;;10.90;99.90;;;;;;5054196;28;20434;-65
2020/12/20 05:45:19;;;;;;;5.93;5.20;;;10.90;1.00;;;;;;5055524;28;20481;-65
2020/12/20 05:47:45;;;;;;;17.73;6.00;;;10.80;1.00;;;;;;5055434;28;20447;-65
2020/12/20 05:50:13;;;;;;;8.33;5.50;;;10.80;1.00;;;;;;5055485;28;20386;-65
2020/12/20 05:52:39;;;;;;;6.50;4.97;;;10.70;1.00;;;;;;5055408;28;20190;-65
2020/12/20 05:55:12;;;;;;;6.50;5.73;;;10.80;1.00;;;;;;5055257;28;20404;-65
2020/12/20 05:57:38;;;;;;;5.63;4.43;;;10.80;1.00;;;;;;5055674;28;20463;-65
2020/12/20 06:00:05;;;;;;;8.87;5.97;;;10.70;1.00;;;;;;5055369;28;20400;-65
2020/12/20 06:02:31;;;;;;;8.40;5.87;;;10.70;1.00;;;;;;5054861;28;20435;-65
2020/12/20 06:05:02;;;;;;;6.60;5.90;;;10.70;1.00;;;;;;5054887;28;20434;-65
2020/12/20 06:07:28;;;;;;;8.20;5.63;;;10.80;1.00;;;;;;5058368;28;20197;-65
2020/12/20 06:09:59;;;;;;;7.47;5.57;;;10.70;1.00;;;;;;5058927;28;20403;-65
2020/12/20 06:12:30;;;;;;;8.63;5.30;;;10.50;1.00;;;;;;5059221;28;20459;-65
2020/12/20 06:14:57;;;;;;;6.97;5.83;;;10.60;1.00;;;;;;5058242;28;20376;-65
2020/12/20 06:17:24;;;;;;;7.30;5.03;;;10.70;1.00;;;;;;5056514;28;20436;-64
2020/12/20 06:19:59;;;;;;;6.23;5.63;;;10.70;1.00;;;;;;5058085;28;20932;-65
2020/12/20 06:22:33;;;;;;;6.50;5.40;;;10.70;1.00;;;;;;5056268;28;20892;-65
2020/12/20 06:25:01;;;;;;;5.93;5.37;;;10.60;1.00;;;;;;5057056;28;20451;-65
2020/12/20 06:27:29;;;;;;;7.80;4.90;;;10.60;1.00;;;;;;5055230;28;20471;-65
2020/12/20 06:29:58;;;;;;;7.30;5.40;;;10.60;5.60;;;;;;5054686;28;20412;-65
2020/12/20 06:32:38;;;;;;;9.00;4.83;;;10.60;99.90;;;;;;5058390;28;20470;-64
2020/12/20 06:35:19;;;;;;;6.47;5.80;;;10.70;1.00;;;;;;5057872;28;20380;-64
2020/12/20 06:37:46;;;;;;;7.40;5.40;;;10.70;1.00;;;;;;5056735;28;20383;-65
2020/12/20 06:40:13;;;;;;;8.43;5.70;;;10.60;99.90;;;;;;5056699;28;20431;-64
2020/12/20 06:42:44;;;;;;;7.20;5.10;;;10.60;99.90;;;;;;5056818;28;20412;-65
2020/12/20 06:45:20;;;;;;;6.10;4.80;;;10.70;73.60;;;;;;5054301;28;20746;-64
2020/12/20 06:47:46;;;;;;;6.00;5.20;;;10.70;21.70;;;;;;5051175;28;20859;-64
2020/12/20 06:50:12;;;;;;;7.70;5.47;;;10.60;74.60;;;;;;5054308;28;20408;-65
2020/12/20 06:52:48;;;;;;;5.80;5.10;;;10.50;99.90;;;;;;5057207;28;20419;-65
2020/12/20 06:55:18;;;;;;;5.60;4.70;;;10.70;99.90;;;;;;5057040;28;20392;-65
2020/12/20 06:58:02;;;;;;;9.60;6.17;;;10.70;1.00;;;;;;5056307;28;20388;-65
2020/12/20 07:00:48;;;;;;;7.00;4.60;;;10.60;84.40;;;;;;5056110;28;20412;-65
2020/12/20 07:03:23;;;;;;;6.90;5.60;;;10.70;33.60;;;;;;5055550;28;20466;-65
2020/12/20 07:05:53;;;;;;;6.83;5.90;;;10.60;99.90;;;;;;5056437;28;20415;-65
2020/12/20 07:08:28;;;;;;;9.13;5.70;;;10.70;99.90;;;;;;5054188;28;20464;-64
2020/12/20 07:10:58;;;;;;;6.97;5.53;;;10.70;10.10;;;;;;5054084;28;20397;-64
2020/12/20 07:13:42;;;;;;;7.73;5.53;;;10.50;1.00;;;;;;5057416;28;20424;-65
2020/12/20 07:16:10;;;;;;;9.77;5.73;;;10.50;99.90;;;;;;5058494;28;20396;-65
2020/12/20 07:18:51;;;;;;;11.73;5.70;;;10.40;99.90;;;;;;5058509;28;20388;-65
2020/12/20 07:21:23;;;;;;;7.23;5.20;;;10.30;99.90;;;;;;5058390;28;20404;-64
2020/12/20 07:24:10;;;;;;;8.90;5.67;;;10.20;99.90;;;;;;5057860;28;20408;-65
2020/12/20 07:26:36;;;;;;;7.17;5.40;;;10.10;99.90;;;;;;5057957;28;20433;-65
2020/12/20 07:29:06;;;;;;;8.60;6.23;;;10.10;41.60;;;;;;5058166;28;20396;-65
2020/12/20 07:31:32;;;;;;;9.90;5.80;;;10.20;99.90;;;;;;5057494;28;20232;-65
2020/12/20 07:33:58;;;;;;;6.23;5.63;;;10.40;1.00;;;;;;5058490;28;20420;-65
2020/12/20 07:36:25;;;;;;;12.10;7.13;;;10.20;1.00;;;;;;5058692;28;20416;-65
2020/12/20 07:38:51;;;;;;;7.60;6.10;;;10.00;34.30;;;;;;5058919;28;20412;-65
2020/12/20 07:41:18;;;;;;;9.00;6.20;;;10.20;1.00;;;;;;5059346;28;20416;-65
2020/12/20 07:43:44;;;;;;;10.43;8.10;;;10.10;1.00;;;;;;5058848;28;20428;-65
2020/12/20 07:46:11;;;;;;;6.87;6.17;;;10.20;96.30;;;;;;5058274;28;20417;-65
2020/12/20 07:48:37;;;;;;;6.83;5.87;;;10.20;1.00;;;;;;5057896;28;20431;-65
2020/12/20 07:51:20;;;;;;;8.00;6.10;;;9.90;34.90;;;;;;5056787;28;20438;-64
2020/12/20 07:53:51;;;;;;;9.10;7.30;;;10.00;99.90;;;;;;5058674;28;20400;-65
2020/12/20 07:56:33;;;;;;;10.47;6.67;;;10.20;1.00;;;;;;5058216;28;20392;-65
2020/12/20 07:59:04;;;;;;;7.83;6.60;;;10.40;99.90;;;;;;5056695;28;20381;-65
2020/12/20 08:01:30;;;;;;;8.50;7.07;;;10.30;99.90;;;;;;5056468;28;20393;-64
2020/12/20 08:04:13;;;;;;;12.77;7.53;;;10.30;99.90;;;;;;5056487;28;20426;-65
2020/12/20 08:06:44;;;;;;;15.27;7.60;;;10.00;99.90;;;;;;5057112;28;20444;-65
2020/12/20 08:09:11;;;;;;;8.73;6.90;;;9.80;1.00;;;;;;5057111;28;20377;-65
2020/12/20 08:11:37;;;;;;;9.37;7.37;;;9.80;99.90;;;;;;5057785;28;20405;-65
2020/12/20 08:14:06;;;;;;;7.80;6.87;;;10.00;40.80;;;;;;5058571;28;20383;-65
2020/12/20 08:16:34;;;;;;;15.53;7.50;;;10.30;99.90;;;;;;5057491;28;20438;-65
2020/12/20 08:19:08;;;;;;;9.87;6.67;;;10.30;1.00;;;;;;5055419;28;20458;-65
2020/12/20 08:21:56;;;;;;;7.50;6.60;;;10.20;99.90;;;;;;5055967;28;20397;-65
2020/12/20 08:24:26;;;;;;;8.00;6.30;;;10.10;1.00;;;;;;5055265;28;20415;-65
2020/12/20 08:26:52;;;;;;;7.87;6.90;;;10.00;99.90;;;;;;5056707;28;20443;-65
2020/12/20 08:29:19;;;;;;;6.80;5.83;;;10.00;78.00;;;;;;5054964;28;20419;-65
2020/12/20 08:31:45;;;;;;;8.67;5.87;;;9.80;99.90;;;;;;5054388;28;20452;-65
2020/12/20 08:34:29;;;;;;;8.03;6.00;;;10.00;1.00;;;;;;5056591;28;20408;-65
2020/12/20 08:36:55;;;;;;;12.67;7.50;;;10.10;99.90;;;;;;5056389;28;20359;-65
2020/12/20 08:39:24;;;;;;;11.10;7.83;;;10.00;99.90;;;;;;5054250;28;20462;-65
2020/12/20 08:42:04;;;;;;;9.53;6.77;;;9.80;74.60;;;;;;5051536;28;20281;-65
2020/12/20 08:44:30;;;;;;;8.83;6.37;;;9.80;99.90;;;;;;5052293;28;20420;-65
2020/12/20 08:47:08;;;;;;;8.53;6.20;;;10.00;99.90;;;;;;5051968;28;20813;-65
2020/12/20 08:49:35;;;;;;;10.37;7.47;;;10.20;99.90;;;;;;5050873;28;20367;-64
2020/12/20 08:52:08;;;;;;;7.67;6.87;;;10.20;13.10;;;;;;5052240;28;20431;-65
2020/12/20 08:54:34;;;;;;;7.80;6.33;;;10.00;1.00;;;;;;5052832;28;20503;-65
2020/12/20 08:57:07;;;;;;;10.33;7.37;;;10.00;1.00;;;;;;5052769;28;20412;-65
2020/12/20 08:59:46;;;;;;;8.63;6.70;;;10.40;99.90;;;;;;5048103;28;20687;-65
2020/12/20 09:02:23;;;;;;;7.03;6.33;;;10.40;1.00;;;;;;5049276;28;20424;-65
2020/12/20 09:05:02;;;;;;;10.73;7.30;;;10.40;99.90;;;;;;5048525;28;20420;-65
2020/12/20 09:07:44;;;;;;;7.13;6.00;;;10.70;1.00;;;;;;5056396;28;20439;-65
2020/12/20 09:10:18;;;;;;;11.50;8.27;;;10.90;4.10;;;;;;5056326;28;20360;-65
2020/12/20 09:12:55;;;;;;;11.80;6.53;;;10.90;1.00;;;;;;5054645;28;20416;-65
2020/12/20 09:15:22;;;;;;;10.40;6.07;;;11.00;1.00;;;;;;5054579;28;20739;-65
2020/12/20 09:17:52;;;;;;;9.97;6.97;;;11.00;1.00;;;;;;5054161;28;20455;-65
2020/12/20 09:20:21;;;;;;;12.03;6.33;;;11.00;1.00;;;;;;5051352;28;20438;-65
2020/12/20 09:22:52;;;;;;;7.83;6.30;;;11.10;1.00;;;;;;5053551;28;20402;-65
2020/12/20 09:25:31;;;;;;;7.07;6.37;;;11.00;1.00;;;;;;5051756;28;20393;-65
2020/12/20 09:27:59;;;;;;;8.90;6.67;;;11.00;1.00;;;;;;5052708;28;20455;-65
2020/12/20 09:30:42;;;;;;;7.27;6.43;;;11.00;1.00;;;;;;5053690;28;20383;-65
2020/12/20 09:33:22;;;;;;;7.60;5.93;;;10.80;1.00;;;;;;5053956;28;20499;-65
2020/12/20 09:35:55;;;;;;;9.40;6.27;;;11.10;1.00;;;;;;5054018;28;20383;-66
2020/12/20 09:38:22;;;;;;;9.03;6.40;;;11.20;1.00;;;;;;5054040;28;20407;-64
2020/12/20 09:40:56;;;;;;;6.40;5.50;;;11.40;1.00;;;;;;5054124;28;20408;-64
2020/12/20 09:43:21;;;;;;;6.90;5.57;;;11.40;99.90;;;;;;5054239;28;20492;-65
2020/12/20 09:45:47;;;;;;;8.60;6.43;;;11.40;99.90;;;;;;5054856;28;20394;-65
2020/12/20 09:48:13;;;;;;;13.00;7.20;;;11.40;1.00;;;;;;5055113;28;20212;-65
2020/12/20 09:50:38;;;;;;;8.87;6.27;;;11.50;99.90;;;;;;5054893;28;20170;-64
2020/12/20 09:53:04;;;;;;;7.60;6.17;;;11.50;99.90;;;;;;5055761;28;20461;-64
2020/12/20 09:55:31;;;;;;;9.80;6.60;;;11.60;99.90;;;;;;5056218;28;20178;-65
2020/12/20 09:57:57;;;;;;;6.87;5.70;;;11.50;99.90;;;;;;5055445;28;20408;-64
2020/12/20 10:00:23;;;;;;;8.20;6.00;;;11.50;99.90;;;;;;5055819;28;20420;-65
2020/12/20 10:02:49;;;;;;;9.70;6.60;;;11.60;99.90;;;;;;5055266;28;20460;-65
2020/12/20 10:05:14;;;;;;;8.03;6.70;;;11.70;99.90;;;;;;5056232;28;20170;-64
2020/12/20 10:07:40;;;;;;;8.97;5.33;;;11.70;99.90;;;;;;5055881;28;20204;-64
2020/12/20 10:10:05;;;;;;;12.70;5.40;;;11.70;99.90;;;;;;5055779;28;20166;-64
2020/12/20 10:12:32;;;;;;;9.23;6.70;;;11.60;99.90;;;;;;5052777;28;20196;-64
2020/12/20 10:14:58;;;;;;;8.60;6.30;;;11.60;99.90;;;;;;5050153;28;20165;-65
2020/12/20 10:17:25;;;;;;;6.80;6.10;;;11.70;99.90;;;;;;5051128;28;20416;-65
2020/12/20 10:19:52;;;;;;;7.27;6.57;;;11.80;99.90;;;;;;5050090;28;20446;-65
2020/12/20 10:22:18;;;;;;;8.43;5.77;;;11.80;99.90;;;;;;5051545;28;20454;-65
2020/12/20 10:24:44;;;;;;;11.83;6.30;;;11.70;99.90;;;;;;5052188;28;20479;-65
2020/12/20 10:27:09;;;;;;;7.17;5.70;;;11.80;99.90;;;;;;5054221;28;20457;-64
2020/12/20 10:29:35;;;;;;;7.13;6.20;;;11.70;99.90;;;;;;5053609;28;20165;-65
2020/12/20 10:32:01;;;;;;;6.83;5.10;;;11.70;99.90;;;;;;5055200;28;20212;-64
2020/12/20 10:34:26;;;;;;;12.17;6.53;;;11.50;99.90;;;;;;5055010;28;20168;-64
2020/12/20 10:36:52;;;;;;;9.67;6.53;;;11.60;99.90;;;;;;5054597;28;20181;-64
2020/12/20 10:39:18;;;;;;;9.10;6.07;;;11.70;99.90;;;;;;5054123;28;20184;-64
2020/12/20 10:41:44;;;;;;;6.80;5.20;;;11.90;99.90;;;;;;5054638;28;20181;-64
2020/12/20 10:44:10;;;;;;;10.90;5.83;;;11.80;99.90;;;;;;5052307;28;20416;-64
2020/12/20 10:46:36;;;;;;;8.13;5.77;;;11.90;99.90;;;;;;5053065;28;20208;-65
2020/12/20 10:49:03;;;;;;;7.77;5.20;;;11.90;99.90;;;;;;5052953;28;20404;-65
2020/12/20 10:51:29;;;;;;;7.77;5.13;;;12.00;99.90;;;;;;5053402;28;20196;-66
2020/12/20 10:53:55;;;;;;;8.27;5.20;;;11.90;99.90;;;;;;5057067;28;20392;-65
2020/12/20 10:56:21;;;;;;;10.03;5.30;;;12.00;99.90;;;;;;5056016;28;20170;-65
2020/12/20 10:58:50;;;;;;;10.40;4.77;;;12.00;99.90;;;;;;5055893;28;20424;-65
2020/12/20 11:01:20;;;;;;;10.63;5.70;;;11.90;99.90;;;;;;5057888;28;20435;-66
2020/12/20 11:03:49;;;;;;;15.53;5.10;;;11.80;99.90;;;;;;5057819;28;20450;-65
2020/12/20 11:06:23;;;;;;;6.40;4.80;;;12.00;99.90;;;;;;5056617;28;20499;-66
2020/12/20 11:08:50;;;;;;;7.10;4.13;;;12.00;99.90;;;;;;5057125;28;20486;-66
2020/12/20 11:11:19;;;;;;;10.93;4.63;;;12.10;99.90;;;;;;5056912;28;20400;-65
2020/12/20 11:13:45;;;;;;;7.00;5.77;;;12.00;99.90;;;;;;5055902;28;20416;-65
2020/12/20 11:16:15;;;;;;;12.30;5.37;;;12.00;99.90;;;;;;5056506;28;20407;-65
2020/12/20 11:18:42;;;;;;;8.53;4.60;;;12.00;99.90;;;;;;5054627;28;20408;-65
2020/12/20 11:21:14;;;;;;;7.50;4.63;;;12.10;99.90;;;;;;5056009;28;20811;-65
2020/12/20 11:23:40;;;;;;;7.17;5.13;;;12.10;99.90;;;;;;5056236;28;20427;-65
2020/12/20 11:26:14;;;;;;;6.03;4.90;;;12.20;99.90;;;;;;5054288;28;20408;-65
2020/12/20 11:28:42;;;;;;;14.13;5.97;;;12.00;99.90;;;;;;5051043;28;20425;-66
2020/12/20 11:31:12;;;;;;;5.80;4.60;;;12.20;99.90;;;;;;5050312;28;20416;-66
2020/12/20 11:33:38;;;;;;;2.83;1.80;;;12.30;99.90;;;;;;5073818;22;20560;-67
2020/12/20 11:36:05;;;;;;;9.00;5.83;;;14.40;99.90;;;;;;5053651;28;20408;-65
2020/12/20 11:38:32;;;;;;;8.33;4.63;;;13.30;39.60;;;;;;5055101;28;20474;-65
2020/12/20 11:40:59;;;;;;;7.07;4.57;;;12.70;99.90;;;;;;5054950;28;20432;-64
2020/12/20 11:43:25;;;;;;;11.03;4.90;;;12.40;99.90;;;;;;5054965;28;20498;-65
2020/12/20 11:45:51;;;;;;;10.43;4.70;;;12.40;99.90;;;;;;5054944;28;20971;-65
2020/12/20 11:48:16;;;;;;;7.70;5.40;;;12.30;99.90;;;;;;5054818;28;20223;-64
2020/12/20 11:50:42;;;;;;;7.00;4.47;;;12.20;99.90;;;;;;5054574;28;20161;-65
2020/12/20 11:53:08;;;;;;;8.30;5.37;;;12.30;99.90;;;;;;5054971;28;20323;-65
2020/12/20 11:55:34;;;;;;;8.13;4.40;;;12.40;99.90;;;;;;5055058;28;20244;-64
2020/12/20 11:58:01;;;;;;;7.87;4.70;;;12.30;99.90;;;;;;5054611;28;20179;-65
2020/12/20 12:00:28;;;;;;;5.90;4.10;;;12.20;99.90;;;;;;5054874;28;20411;-65
2020/12/20 12:02:54;;;;;;;7.93;5.07;;;12.30;99.90;;;;;;5054293;28;20526;-66
2020/12/20 12:05:20;;;;;;;6.00;4.30;;;12.20;99.90;;;;;;5053919;28;20408;-65
2020/12/20 12:07:46;;;;;;;8.70;4.27;;;12.20;99.90;;;;;;5054338;28;20449;-65
2020/12/20 12:10:11;;;;;;;7.53;4.63;;;12.40;99.90;;;;;;5054694;28;20626;-65
2020/12/20 12:12:37;;;;;;;9.20;4.30;;;12.30;99.90;;;;;;5054256;28;20477;-65
2020/12/20 12:15:03;;;;;;;7.37;4.37;;;12.10;99.90;;;;;;5054605;28;20196;-65
2020/12/20 12:17:28;;;;;;;49.53;23.87;;;12.20;99.90;;;;;;5054412;28;20180;-64
2020/12/20 12:19:55;;;;;;;11.50;6.87;;;12.20;99.90;;;;;;5054524;28;20411;-65
2020/12/20 12:22:21;;;;;;;5.73;4.20;;;12.10;99.90;;;;;;5054109;28;20664;-65
2020/12/20 12:24:47;;;;;;;8.30;4.77;;;12.30;99.90;;;;;;5054459;28;20407;-65
2020/12/20 12:27:13;;;;;;;8.50;6.10;;;12.20;99.90;;;;;;5054189;28;20503;-65
2020/12/20 12:29:39;;;;;;;9.20;4.20;;;12.30;99.90;;;;;;5054188;28;20165;-65
2020/12/20 12:32:05;;;;;;;9.83;5.10;;;12.30;99.90;;;;;;5053949;28;20171;-65
2020/12/20 12:34:30;;;;;;;13.47;6.23;;;12.30;99.90;;;;;;5053919;28;20912;-65
2020/12/20 12:36:56;;;;;;;11.47;5.40;;;12.30;99.90;;;;;;5053929;28;20642;-65
2020/12/20 12:39:21;;;;;;;7.50;5.27;;;12.20;99.90;;;;;;5053969;28;20221;-65
2020/12/20 12:41:47;;;;;;;7.57;4.80;;;12.30;99.90;;;;;;5053980;28;20176;-65
2020/12/20 12:44:13;;;;;;;9.97;5.00;;;12.30;99.90;;;;;;5052607;28;20188;-65
2020/12/20 12:46:43;;;;;;;6.63;4.23;;;12.30;99.90;;;;;;5053836;28;20200;-65
2020/12/20 12:49:09;;;;;;;10.47;5.77;;;12.40;99.90;;;;;;5053956;28;20244;-65
2020/12/20 12:51:35;;;;;;;9.70;5.10;;;12.30;99.90;;;;;;5053633;28;20771;-65